Hlavní strana
METAR-TAF:

METAR-TAF

Letiště :

Trabzon, Turecko

zeměpisná šířka: 41-00N, zeměpisná délka: 039-43E, výška: 35 m

Aktuální stav počasí

Zpráva byla vytvořena před 45 minutami, v 03:20 UTC
Jižní vítr 5 kt
Teplota 11°C
Vlhkost vzduchu 76%
Tlak 1022 hPa
Viditelnost 10 km a více
Žádná oblačnost pod 1500 m, nevyskytují se cumulonimby.

METAR: LTCG 180320Z 18005KT CAVOK 11/07 Q1022 NOSIG RMK RWY29 00000KT

Čas: 07:05 (04:05 UTC)

Předpověď počasí

Zpráva byla vytvořena před 5 hodinami a 25 minutami, v 22:40 UTC
Předpověď platná od 18 v 00 UTC do 18 v 24 UTC
vítr z různých směrů 2 kt
Viditelnost 10 km a více
Žádná oblačnost pod 1500 m, nevyskytují se cumulonimby.
Pravděpodobnost 40%
od 18 v 10 UTC do 18 v 14 UTC
Viditelnost: 4500 m
Polojasno ve výšce 1500 ft
kouřmo
Pravděpodobnost 40%
od 18 v 14 UTC do 18 v 18 UTC
Viditelnost: 4500 m
Polojasno ve výšce 1500 ft
kouřmo

TAF: LTCG 172240Z 1800/1824 VRB02KT CAVOK PROB40 1810/1814 4500 BR SCT015 PROB40 1814/1818 4500 BR SCT015

Stav a předpovědi počasí z více než 4 000 letišť (zprávy METAR a TAF).

Červené a žluté tečky na mapě představují dostupné meteorologické stanice.

Když kurzor umístíte na tečku, zobrazí se název stanice.

Pak kliknutím zobrazíte stav a předpověď počasí.

Chcete-li změnit mapu, kliknutím na zelené tlačítko se znaménkem +mapu přiblížíte, kliknutím na zelené tlačítko se znaménkem – mapu oddálíte a kliknutím na zelené šipky přejdete na sousední mapy.


METAR-TAF: